sensor_id;sensor_type;location;lat;lon;timestamp;P1;durP1;ratioP1;P2;durP2;ratioP2
48925;SDS011;39838;59.938;30.642;2023-07-29T00:00:15;11.60;;;5.88;;
48925;SDS011;39838;59.938;30.642;2023-07-29T00:02:42;11.23;;;5.78;;
48925;SDS011;39838;59.938;30.642;2023-07-29T00:05:10;15.20;;;5.95;;
48925;SDS011;39838;59.938;30.642;2023-07-29T00:07:37;10.13;;;5.25;;
48925;SDS011;39838;59.938;30.642;2023-07-29T00:10:05;10.25;;;6.05;;
48925;SDS011;39838;59.938;30.642;2023-07-29T00:12:34;12.65;;;5.53;;
48925;SDS011;39838;59.938;30.642;2023-07-29T00:15:02;13.00;;;5.68;;
48925;SDS011;39838;59.938;30.642;2023-07-29T00:17:30;8.45;;;5.20;;
48925;SDS011;39838;59.938;30.642;2023-07-29T00:19:57;12.02;;;5.22;;
48925;SDS011;39838;59.938;30.642;2023-07-29T00:22:25;9.13;;;5.05;;
48925;SDS011;39838;59.938;30.642;2023-07-29T00:24:52;11.95;;;5.38;;
48925;SDS011;39838;59.938;30.642;2023-07-29T00:27:20;11.77;;;4.90;;
48925;SDS011;39838;59.938;30.642;2023-07-29T00:29:49;13.05;;;5.05;;
48925;SDS011;39838;59.938;30.642;2023-07-29T00:32:16;9.40;;;4.88;;
48925;SDS011;39838;59.938;30.642;2023-07-29T00:34:43;14.10;;;4.90;;
48925;SDS011;39838;59.938;30.642;2023-07-29T00:37:11;9.95;;;4.72;;
48925;SDS011;39838;59.938;30.642;2023-07-29T00:39:38;7.97;;;4.70;;
48925;SDS011;39838;59.938;30.642;2023-07-29T00:42:05;8.48;;;4.57;;
48925;SDS011;39838;59.938;30.642;2023-07-29T00:44:33;10.90;;;4.65;;
48925;SDS011;39838;59.938;30.642;2023-07-29T00:47:02;8.77;;;4.60;;
48925;SDS011;39838;59.938;30.642;2023-07-29T00:49:29;9.13;;;4.57;;
48925;SDS011;39838;59.938;30.642;2023-07-29T00:51:57;7.80;;;4.72;;
48925;SDS011;39838;59.938;30.642;2023-07-29T00:54:24;8.68;;;5.00;;
48925;SDS011;39838;59.938;30.642;2023-07-29T00:56:51;15.90;;;4.80;;
48925;SDS011;39838;59.938;30.642;2023-07-29T00:59:18;11.18;;;4.70;;
48925;SDS011;39838;59.938;30.642;2023-07-29T01:01:45;8.77;;;4.50;;
48925;SDS011;39838;59.938;30.642;2023-07-29T01:04:14;9.75;;;4.50;;
48925;SDS011;39838;59.938;30.642;2023-07-29T01:06:44;12.57;;;5.13;;
48925;SDS011;39838;59.938;30.642;2023-07-29T01:09:18;12.80;;;4.88;;
48925;SDS011;39838;59.938;30.642;2023-07-29T01:11:59;10.05;;;5.00;;
48925;SDS011;39838;59.938;30.642;2023-07-29T01:14:34;14.60;;;4.68;;
48925;SDS011;39838;59.938;30.642;2023-07-29T01:17:07;10.48;;;4.85;;
48925;SDS011;39838;59.938;30.642;2023-07-29T01:19:47;10.30;;;4.50;;
48925;SDS011;39838;59.938;30.642;2023-07-29T01:22:24;9.27;;;5.32;;
48925;SDS011;39838;59.938;30.642;2023-07-29T01:24:53;11.70;;;6.18;;
48925;SDS011;39838;59.938;30.642;2023-07-29T01:27:21;12.70;;;6.70;;
48925;SDS011;39838;59.938;30.642;2023-07-29T01:29:48;13.43;;;6.85;;
48925;SDS011;39838;59.938;30.642;2023-07-29T01:32:17;12.32;;;6.93;;
48925;SDS011;39838;59.938;30.642;2023-07-29T01:34:48;10.05;;;7.18;;
48925;SDS011;39838;59.938;30.642;2023-07-29T01:37:22;11.70;;;6.80;;
48925;SDS011;39838;59.938;30.642;2023-07-29T01:39:55;9.73;;;6.70;;
48925;SDS011;39838;59.938;30.642;2023-07-29T01:42:24;9.95;;;6.88;;
48925;SDS011;39838;59.938;30.642;2023-07-29T01:44:52;11.38;;;7.20;;
48925;SDS011;39838;59.938;30.642;2023-07-29T01:47:20;11.07;;;7.03;;
48925;SDS011;39838;59.938;30.642;2023-07-29T01:49:47;9.80;;;6.57;;
48925;SDS011;39838;59.938;30.642;2023-07-29T01:52:15;10.23;;;5.97;;
48925;SDS011;39838;59.938;30.642;2023-07-29T01:54:42;12.30;;;5.47;;
48925;SDS011;39838;59.938;30.642;2023-07-29T01:57:10;8.52;;;5.82;;
48925;SDS011;39838;59.938;30.642;2023-07-29T01:59:38;10.70;;;5.57;;
48925;SDS011;39838;59.938;30.642;2023-07-29T02:02:06;9.18;;;6.45;;
48925;SDS011;39838;59.938;30.642;2023-07-29T02:04:33;8.57;;;5.95;;
48925;SDS011;39838;59.938;30.642;2023-07-29T02:07:00;9.40;;;5.90;;
48925;SDS011;39838;59.938;30.642;2023-07-29T02:09:27;11.27;;;5.60;;
48925;SDS011;39838;59.938;30.642;2023-07-29T02:11:56;8.40;;;5.93;;
48925;SDS011;39838;59.938;30.642;2023-07-29T02:14:24;12.85;;;5.68;;
48925;SDS011;39838;59.938;30.642;2023-07-29T02:16:52;9.25;;;5.93;;
48925;SDS011;39838;59.938;30.642;2023-07-29T02:19:39;11.65;;;5.72;;
48925;SDS011;39838;59.938;30.642;2023-07-29T02:22:06;9.52;;;4.95;;
48925;SDS011;39838;59.938;30.642;2023-07-29T02:24:33;8.98;;;5.78;;
48925;SDS011;39838;59.938;30.642;2023-07-29T02:27:00;13.82;;;5.57;;
48925;SDS011;39838;59.938;30.642;2023-07-29T02:29:29;9.20;;;5.35;;
48925;SDS011;39838;59.938;30.642;2023-07-29T02:31:56;7.90;;;5.15;;
48925;SDS011;39838;59.938;30.642;2023-07-29T02:34:23;8.88;;;5.60;;
48925;SDS011;39838;59.938;30.642;2023-07-29T02:36:50;9.55;;;5.63;;
48925;SDS011;39838;59.938;30.642;2023-07-29T02:39:17;12.88;;;5.75;;
48925;SDS011;39838;59.938;30.642;2023-07-29T02:41:45;11.52;;;5.45;;
48925;SDS011;39838;59.938;30.642;2023-07-29T02:44:12;9.75;;;5.10;;
48925;SDS011;39838;59.938;30.642;2023-07-29T02:46:40;8.25;;;4.80;;
48925;SDS011;39838;59.938;30.642;2023-07-29T02:49:08;9.93;;;4.63;;
48925;SDS011;39838;59.938;30.642;2023-07-29T02:51:35;9.98;;;4.93;;
48925;SDS011;39838;59.938;30.642;2023-07-29T02:54:02;12.13;;;4.35;;
48925;SDS011;39838;59.938;30.642;2023-07-29T02:56:29;8.90;;;4.78;;
48925;SDS011;39838;59.938;30.642;2023-07-29T02:58:57;10.00;;;4.78;;
48925;SDS011;39838;59.938;30.642;2023-07-29T03:01:25;7.28;;;4.90;;
48925;SDS011;39838;59.938;30.642;2023-07-29T03:03:54;7.35;;;5.00;;
48925;SDS011;39838;59.938;30.642;2023-07-29T03:06:21;8.93;;;4.97;;
48925;SDS011;39838;59.938;30.642;2023-07-29T03:08:48;14.95;;;5.43;;
48925;SDS011;39838;59.938;30.642;2023-07-29T03:11:15;10.40;;;5.53;;
48925;SDS011;39838;59.938;30.642;2023-07-29T03:13:43;10.93;;;5.10;;
48925;SDS011;39838;59.938;30.642;2023-07-29T03:16:10;10.65;;;5.15;;
48925;SDS011;39838;59.938;30.642;2023-07-29T03:18:39;8.77;;;4.93;;
48925;SDS011;39838;59.938;30.642;2023-07-29T03:21:08;9.50;;;5.10;;
48925;SDS011;39838;59.938;30.642;2023-07-29T03:23:37;8.55;;;4.78;;
48925;SDS011;39838;59.938;30.642;2023-07-29T03:26:04;8.52;;;5.00;;
48925;SDS011;39838;59.938;30.642;2023-07-29T03:28:36;11.48;;;4.88;;
48925;SDS011;39838;59.938;30.642;2023-07-29T03:31:04;9.82;;;5.30;;
48925;SDS011;39838;59.938;30.642;2023-07-29T03:33:31;10.02;;;5.18;;
48925;SDS011;39838;59.938;30.642;2023-07-29T03:35:58;9.38;;;4.95;;
48925;SDS011;39838;59.938;30.642;2023-07-29T03:38:27;10.40;;;5.47;;
48925;SDS011;39838;59.938;30.642;2023-07-29T03:40:54;9.93;;;5.00;;
48925;SDS011;39838;59.938;30.642;2023-07-29T03:43:21;14.77;;;4.80;;
48925;SDS011;39838;59.938;30.642;2023-07-29T03:45:49;8.45;;;4.80;;
48925;SDS011;39838;59.938;30.642;2023-07-29T03:48:16;8.25;;;4.95;;
48925;SDS011;39838;59.938;30.642;2023-07-29T03:50:43;11.40;;;5.22;;
48925;SDS011;39838;59.938;30.642;2023-07-29T03:53:10;9.25;;;5.40;;
48925;SDS011;39838;59.938;30.642;2023-07-29T03:55:39;8.90;;;5.07;;
48925;SDS011;39838;59.938;30.642;2023-07-29T03:58:06;11.00;;;5.00;;
48925;SDS011;39838;59.938;30.642;2023-07-29T04:00:33;11.80;;;5.18;;
48925;SDS011;39838;59.938;30.642;2023-07-29T04:03:00;9.18;;;4.97;;
48925;SDS011;39838;59.938;30.642;2023-07-29T04:05:28;10.50;;;5.13;;
48925;SDS011;39838;59.938;30.642;2023-07-29T04:07:55;12.18;;;4.72;;
48925;SDS011;39838;59.938;30.642;2023-07-29T04:10:22;8.32;;;4.47;;
48925;SDS011;39838;59.938;30.642;2023-07-29T04:12:51;6.68;;;4.20;;
48925;SDS011;39838;59.938;30.642;2023-07-29T04:15:18;8.77;;;4.45;;
48925;SDS011;39838;59.938;30.642;2023-07-29T04:17:45;9.90;;;4.20;;
48925;SDS011;39838;59.938;30.642;2023-07-29T04:20:12;7.30;;;4.30;;
48925;SDS011;39838;59.938;30.642;2023-07-29T04:22:39;12.23;;;4.60;;
48925;SDS011;39838;59.938;30.642;2023-07-29T04:25:07;7.55;;;4.20;;
48925;SDS011;39838;59.938;30.642;2023-07-29T04:27:34;13.55;;;4.50;;
48925;SDS011;39838;59.938;30.642;2023-07-29T04:30:03;9.75;;;4.72;;
48925;SDS011;39838;59.938;30.642;2023-07-29T04:32:31;8.23;;;4.90;;
48925;SDS011;39838;59.938;30.642;2023-07-29T04:34:58;8.18;;;4.50;;
48925;SDS011;39838;59.938;30.642;2023-07-29T04:37:25;8.60;;;4.35;;
48925;SDS011;39838;59.938;30.642;2023-07-29T04:39:52;11.98;;;4.55;;
48925;SDS011;39838;59.938;30.642;2023-07-29T04:42:20;8.02;;;4.15;;
48925;SDS011;39838;59.938;30.642;2023-07-29T04:44:47;9.38;;;4.00;;
48925;SDS011;39838;59.938;30.642;2023-07-29T04:47:15;10.75;;;4.20;;
48925;SDS011;39838;59.938;30.642;2023-07-29T04:49:43;6.72;;;4.07;;
48925;SDS011;39838;59.938;30.642;2023-07-29T04:52:10;8.27;;;3.88;;
48925;SDS011;39838;59.938;30.642;2023-07-29T04:54:37;7.68;;;3.90;;
48925;SDS011;39838;59.938;30.642;2023-07-29T04:57:05;8.57;;;3.90;;
48925;SDS011;39838;59.938;30.642;2023-07-29T04:59:32;10.60;;;4.03;;
48925;SDS011;39838;59.938;30.642;2023-07-29T05:01:59;9.95;;;3.83;;
48925;SDS011;39838;59.938;30.642;2023-07-29T05:04:28;7.20;;;3.72;;
48925;SDS011;39838;59.938;30.642;2023-07-29T05:06:55;6.43;;;3.80;;
48925;SDS011;39838;59.938;30.642;2023-07-29T05:09:22;8.35;;;3.83;;
48925;SDS011;39838;59.938;30.642;2023-07-29T05:11:50;9.77;;;3.95;;
48925;SDS011;39838;59.938;30.642;2023-07-29T05:14:17;8.63;;;4.00;;
48925;SDS011;39838;59.938;30.642;2023-07-29T05:16:45;8.43;;;3.60;;
48925;SDS011;39838;59.938;30.642;2023-07-29T05:19:13;8.48;;;4.00;;
48925;SDS011;39838;59.938;30.642;2023-07-29T05:21:41;7.30;;;3.95;;
48925;SDS011;39838;59.938;30.642;2023-07-29T05:24:08;8.20;;;3.97;;
48925;SDS011;39838;59.938;30.642;2023-07-29T05:26:36;10.75;;;3.42;;
48925;SDS011;39838;59.938;30.642;2023-07-29T05:29:03;7.97;;;3.92;;
48925;SDS011;39838;59.938;30.642;2023-07-29T05:31:30;7.55;;;3.58;;
48925;SDS011;39838;59.938;30.642;2023-07-29T05:33:57;6.43;;;3.70;;
48925;SDS011;39838;59.938;30.642;2023-07-29T05:36:24;5.60;;;3.63;;
48925;SDS011;39838;59.938;30.642;2023-07-29T05:38:53;8.55;;;3.70;;
48925;SDS011;39838;59.938;30.642;2023-07-29T05:41:20;6.60;;;3.45;;
48925;SDS011;39838;59.938;30.642;2023-07-29T05:43:47;5.30;;;3.05;;
48925;SDS011;39838;59.938;30.642;2023-07-29T05:46:15;6.65;;;3.22;;
48925;SDS011;39838;59.938;30.642;2023-07-29T05:48:42;7.80;;;3.30;;
48925;SDS011;39838;59.938;30.642;2023-07-29T05:51:09;4.95;;;3.75;;
48925;SDS011;39838;59.938;30.642;2023-07-29T05:53:36;5.88;;;3.20;;
48925;SDS011;39838;59.938;30.642;2023-07-29T05:56:05;5.95;;;3.22;;
48925;SDS011;39838;59.938;30.642;2023-07-29T05:58:32;7.60;;;3.30;;
48925;SDS011;39838;59.938;30.642;2023-07-29T06:00:59;6.53;;;3.13;;
48925;SDS011;39838;59.938;30.642;2023-07-29T06:03:27;7.93;;;3.45;;
48925;SDS011;39838;59.938;30.642;2023-07-29T06:05:54;5.88;;;3.35;;
48925;SDS011;39838;59.938;30.642;2023-07-29T06:08:21;8.48;;;3.10;;
48925;SDS011;39838;59.938;30.642;2023-07-29T06:10:48;5.38;;;3.17;;
48925;SDS011;39838;59.938;30.642;2023-07-29T06:13:17;6.10;;;3.30;;
48925;SDS011;39838;59.938;30.642;2023-07-29T06:15:44;7.15;;;3.28;;
48925;SDS011;39838;59.938;30.642;2023-07-29T06:18:11;6.38;;;3.58;;
48925;SDS011;39838;59.938;30.642;2023-07-29T06:20:38;7.68;;;3.03;;
48925;SDS011;39838;59.938;30.642;2023-07-29T06:23:05;7.10;;;3.00;;
48925;SDS011;39838;59.938;30.642;2023-07-29T06:25:33;6.97;;;3.28;;
48925;SDS011;39838;59.938;30.642;2023-07-29T06:28:00;7.45;;;3.20;;
48925;SDS011;39838;59.938;30.642;2023-07-29T06:30:29;8.40;;;3.50;;
48925;SDS011;39838;59.938;30.642;2023-07-29T06:32:56;4.55;;;2.90;;
48925;SDS011;39838;59.938;30.642;2023-07-29T06:35:23;4.13;;;2.88;;
48925;SDS011;39838;59.938;30.642;2023-07-29T06:37:51;5.30;;;2.85;;
48925;SDS011;39838;59.938;30.642;2023-07-29T06:40:18;8.32;;;3.13;;
48925;SDS011;39838;59.938;30.642;2023-07-29T06:42:45;11.10;;;3.15;;
48925;SDS011;39838;59.938;30.642;2023-07-29T06:45:12;5.18;;;2.92;;
48925;SDS011;39838;59.938;30.642;2023-07-29T06:47:42;7.60;;;3.03;;
48925;SDS011;39838;59.938;30.642;2023-07-29T06:50:09;8.15;;;3.15;;
48925;SDS011;39838;59.938;30.642;2023-07-29T06:52:36;6.50;;;2.90;;
48925;SDS011;39838;59.938;30.642;2023-07-29T06:55:05;5.28;;;2.92;;
48925;SDS011;39838;59.938;30.642;2023-07-29T06:57:33;8.00;;;3.03;;
48925;SDS011;39838;59.938;30.642;2023-07-29T07:00:01;7.03;;;3.10;;
48925;SDS011;39838;59.938;30.642;2023-07-29T07:02:31;4.90;;;2.72;;
48925;SDS011;39838;59.938;30.642;2023-07-29T07:05:00;6.15;;;3.22;;
48925;SDS011;39838;59.938;30.642;2023-07-29T07:07:29;5.50;;;2.80;;
48925;SDS011;39838;59.938;30.642;2023-07-29T07:09:56;5.07;;;2.70;;
48925;SDS011;39838;59.938;30.642;2023-07-29T07:12:23;4.63;;;2.72;;
48925;SDS011;39838;59.938;30.642;2023-07-29T07:14:51;6.70;;;2.80;;
48925;SDS011;39838;59.938;30.642;2023-07-29T07:17:18;7.03;;;2.88;;
48925;SDS011;39838;59.938;30.642;2023-07-29T07:19:45;6.80;;;3.05;;
48925;SDS011;39838;59.938;30.642;2023-07-29T07:22:14;5.20;;;3.00;;
48925;SDS011;39838;59.938;30.642;2023-07-29T07:24:41;6.15;;;3.10;;
48925;SDS011;39838;59.938;30.642;2023-07-29T07:27:08;5.13;;;2.97;;
48925;SDS011;39838;59.938;30.642;2023-07-29T07:29:35;7.45;;;2.97;;
48925;SDS011;39838;59.938;30.642;2023-07-29T07:32:03;7.50;;;2.90;;
48925;SDS011;39838;59.938;30.642;2023-07-29T07:34:30;6.60;;;3.47;;
48925;SDS011;39838;59.938;30.642;2023-07-29T07:36:58;5.72;;;3.20;;
48925;SDS011;39838;59.938;30.642;2023-07-29T07:39:27;5.07;;;3.08;;
48925;SDS011;39838;59.938;30.642;2023-07-29T07:41:54;5.30;;;3.30;;
48925;SDS011;39838;59.938;30.642;2023-07-29T07:44:21;5.55;;;2.97;;
48925;SDS011;39838;59.938;30.642;2023-07-29T07:46:51;6.47;;;2.92;;
48925;SDS011;39838;59.938;30.642;2023-07-29T07:49:19;5.68;;;3.10;;
48925;SDS011;39838;59.938;30.642;2023-07-29T07:51:46;6.38;;;3.20;;
48925;SDS011;39838;59.938;30.642;2023-07-29T07:54:13;8.60;;;3.25;;
48925;SDS011;39838;59.938;30.642;2023-07-29T07:56:42;5.60;;;3.50;;
48925;SDS011;39838;59.938;30.642;2023-07-29T07:59:09;7.28;;;3.40;;
48925;SDS011;39838;59.938;30.642;2023-07-29T08:01:37;4.68;;;3.08;;
48925;SDS011;39838;59.938;30.642;2023-07-29T08:04:05;7.53;;;3.40;;
48925;SDS011;39838;59.938;30.642;2023-07-29T08:06:33;7.03;;;3.67;;
48925;SDS011;39838;59.938;30.642;2023-07-29T08:09:00;5.63;;;3.10;;
48925;SDS011;39838;59.938;30.642;2023-07-29T08:11:28;6.72;;;3.10;;
48925;SDS011;39838;59.938;30.642;2023-07-29T08:13:57;6.95;;;3.10;;
48925;SDS011;39838;59.938;30.642;2023-07-29T08:16:25;4.97;;;3.05;;
48925;SDS011;39838;59.938;30.642;2023-07-29T08:18:52;4.03;;;2.83;;
48925;SDS011;39838;59.938;30.642;2023-07-29T08:21:19;4.63;;;3.25;;
48925;SDS011;39838;59.938;30.642;2023-07-29T08:23:47;5.93;;;3.40;;
48925;SDS011;39838;59.938;30.642;2023-07-29T08:26:14;4.57;;;3.42;;
48925;SDS011;39838;59.938;30.642;2023-07-29T08:28:42;6.45;;;3.38;;
48925;SDS011;39838;59.938;30.642;2023-07-29T08:31:10;4.28;;;3.03;;
48925;SDS011;39838;59.938;30.642;2023-07-29T08:33:37;5.10;;;2.83;;
48925;SDS011;39838;59.938;30.642;2023-07-29T08:36:05;5.35;;;3.58;;
48925;SDS011;39838;59.938;30.642;2023-07-29T08:38:32;5.57;;;3.10;;
48925;SDS011;39838;59.938;30.642;2023-07-29T08:41:03;6.38;;;3.10;;
48925;SDS011;39838;59.938;30.642;2023-07-29T08:43:36;4.55;;;3.15;;
48925;SDS011;39838;59.938;30.642;2023-07-29T08:46:06;4.15;;;2.85;;
48925;SDS011;39838;59.938;30.642;2023-07-29T08:48:37;7.80;;;3.10;;
48925;SDS011;39838;59.938;30.642;2023-07-29T08:51:07;5.57;;;3.05;;
48925;SDS011;39838;59.938;30.642;2023-07-29T08:53:35;7.25;;;3.10;;
48925;SDS011;39838;59.938;30.642;2023-07-29T08:56:02;7.47;;;3.22;;
48925;SDS011;39838;59.938;30.642;2023-07-29T08:58:30;4.90;;;3.10;;
48925;SDS011;39838;59.938;30.642;2023-07-29T09:00:58;8.93;;;3.40;;
48925;SDS011;39838;59.938;30.642;2023-07-29T09:03:26;7.65;;;3.30;;
48925;SDS011;39838;59.938;30.642;2023-07-29T09:05:55;5.55;;;3.42;;
48925;SDS011;39838;59.938;30.642;2023-07-29T09:08:24;7.28;;;3.40;;
48925;SDS011;39838;59.938;30.642;2023-07-29T09:10:52;7.97;;;3.22;;
48925;SDS011;39838;59.938;30.642;2023-07-29T09:13:20;7.00;;;3.00;;
48925;SDS011;39838;59.938;30.642;2023-07-29T09:15:47;7.75;;;2.80;;
48925;SDS011;39838;59.938;30.642;2023-07-29T09:18:15;4.72;;;2.97;;
48925;SDS011;39838;59.938;30.642;2023-07-29T09:20:43;5.05;;;2.70;;
48925;SDS011;39838;59.938;30.642;2023-07-29T09:23:14;6.38;;;2.60;;
48925;SDS011;39838;59.938;30.642;2023-07-29T09:25:41;5.45;;;2.53;;
48925;SDS011;39838;59.938;30.642;2023-07-29T09:28:09;7.53;;;2.70;;
48925;SDS011;39838;59.938;30.642;2023-07-29T09:30:38;4.03;;;2.60;;
48925;SDS011;39838;59.938;30.642;2023-07-29T09:33:05;5.63;;;2.80;;
48925;SDS011;39838;59.938;30.642;2023-07-29T09:35:34;3.50;;;2.47;;
48925;SDS011;39838;59.938;30.642;2023-07-29T09:38:03;4.53;;;2.70;;
48925;SDS011;39838;59.938;30.642;2023-07-29T09:40:36;5.25;;;2.40;;
48925;SDS011;39838;59.938;30.642;2023-07-29T09:43:05;5.40;;;2.70;;
48925;SDS011;39838;59.938;30.642;2023-07-29T09:45:34;3.30;;;2.45;;
48925;SDS011;39838;59.938;30.642;2023-07-29T09:48:02;4.43;;;2.45;;
48925;SDS011;39838;59.938;30.642;2023-07-29T09:50:35;4.82;;;2.20;;
48925;SDS011;39838;59.938;30.642;2023-07-29T09:53:02;3.35;;;2.22;;
48925;SDS011;39838;59.938;30.642;2023-07-29T09:55:32;3.53;;;2.17;;
48925;SDS011;39838;59.938;30.642;2023-07-29T09:58:02;3.13;;;2.22;;
48925;SDS011;39838;59.938;30.642;2023-07-29T10:00:32;4.40;;;2.13;;
48925;SDS011;39838;59.938;30.642;2023-07-29T10:03:00;3.70;;;2.00;;
48925;SDS011;39838;59.938;30.642;2023-07-29T10:05:27;4.55;;;2.38;;
48925;SDS011;39838;59.938;30.642;2023-07-29T10:07:55;4.40;;;2.20;;
48925;SDS011;39838;59.938;30.642;2023-07-29T10:10:23;3.38;;;2.00;;
48925;SDS011;39838;59.938;30.642;2023-07-29T10:12:52;5.38;;;2.20;;
48925;SDS011;39838;59.938;30.642;2023-07-29T10:15:22;4.50;;;2.38;;
48925;SDS011;39838;59.938;30.642;2023-07-29T10:17:50;4.07;;;2.20;;
48925;SDS011;39838;59.938;30.642;2023-07-29T10:20:18;5.10;;;2.47;;
48925;SDS011;39838;59.938;30.642;2023-07-29T10:22:46;5.38;;;2.65;;
48925;SDS011;39838;59.938;30.642;2023-07-29T10:25:15;3.08;;;2.30;;
48925;SDS011;39838;59.938;30.642;2023-07-29T10:27:47;3.13;;;2.50;;
48925;SDS011;39838;59.938;30.642;2023-07-29T10:30:16;4.60;;;2.30;;
48925;SDS011;39838;59.938;30.642;2023-07-29T10:32:44;3.90;;;2.60;;
48925;SDS011;39838;59.938;30.642;2023-07-29T10:35:12;4.07;;;2.50;;
48925;SDS011;39838;59.938;30.642;2023-07-29T10:37:40;5.43;;;2.50;;
48925;SDS011;39838;59.938;30.642;2023-07-29T10:40:08;5.57;;;2.47;;
48925;SDS011;39838;59.938;30.642;2023-07-29T10:42:37;6.18;;;2.40;;
48925;SDS011;39838;59.938;30.642;2023-07-29T10:45:17;4.22;;;2.10;;
48925;SDS011;39838;59.938;30.642;2023-07-29T10:47:48;2.60;;;2.25;;
48925;SDS011;39838;59.938;30.642;2023-07-29T10:50:19;5.32;;;2.10;;
48925;SDS011;39838;59.938;30.642;2023-07-29T10:52:50;13.55;;;2.70;;
48925;SDS011;39838;59.938;30.642;2023-07-29T10:55:25;4.32;;;2.08;;
48925;SDS011;39838;59.938;30.642;2023-07-29T10:58:13;4.45;;;2.60;;
48925;SDS011;39838;59.938;30.642;2023-07-29T11:00:42;4.18;;;2.20;;
48925;SDS011;39838;59.938;30.642;2023-07-29T11:03:12;2.75;;;2.00;;
48925;SDS011;39838;59.938;30.642;2023-07-29T11:05:45;2.58;;;1.80;;
48925;SDS011;39838;59.938;30.642;2023-07-29T11:08:17;2.75;;;2.05;;
48925;SDS011;39838;59.938;30.642;2023-07-29T11:10:45;3.45;;;2.35;;
48925;SDS011;39838;59.938;30.642;2023-07-29T11:13:26;3.15;;;2.33;;
48925;SDS011;39838;59.938;30.642;2023-07-29T11:15:54;4.40;;;2.33;;
48925;SDS011;39838;59.938;30.642;2023-07-29T11:18:27;3.97;;;2.50;;
48925;SDS011;39838;59.938;30.642;2023-07-29T11:20:55;3.72;;;2.13;;
48925;SDS011;39838;59.938;30.642;2023-07-29T11:23:33;3.22;;;2.40;;
48925;SDS011;39838;59.938;30.642;2023-07-29T11:26:01;6.45;;;2.45;;
48925;SDS011;39838;59.938;30.642;2023-07-29T11:28:29;4.13;;;2.20;;
48925;SDS011;39838;59.938;30.642;2023-07-29T11:30:57;3.33;;;2.30;;
48925;SDS011;39838;59.938;30.642;2023-07-29T11:33:25;4.97;;;2.20;;
48925;SDS011;39838;59.938;30.642;2023-07-29T11:35:54;4.97;;;2.47;;
48925;SDS011;39838;59.938;30.642;2023-07-29T11:38:22;4.47;;;2.28;;
48925;SDS011;39838;59.938;30.642;2023-07-29T11:40:56;3.55;;;2.13;;
48925;SDS011;39838;59.938;30.642;2023-07-29T11:43:25;4.15;;;2.30;;
48925;SDS011;39838;59.938;30.642;2023-07-29T11:45:53;4.25;;;2.30;;
48925;SDS011;39838;59.938;30.642;2023-07-29T11:48:28;2.83;;;2.20;;
48925;SDS011;39838;59.938;30.642;2023-07-29T11:50:58;3.10;;;2.13;;
48925;SDS011;39838;59.938;30.642;2023-07-29T11:53:26;3.20;;;2.40;;
48925;SDS011;39838;59.938;30.642;2023-07-29T11:55:55;4.82;;;2.38;;
48925;SDS011;39838;59.938;30.642;2023-07-29T11:58:22;5.20;;;2.80;;
48925;SDS011;39838;59.938;30.642;2023-07-29T12:00:50;4.75;;;2.78;;
48925;SDS011;39838;59.938;30.642;2023-07-29T12:03:18;3.75;;;2.38;;
48925;SDS011;39838;59.938;30.642;2023-07-29T12:05:47;3.47;;;2.50;;
48925;SDS011;39838;59.938;30.642;2023-07-29T12:08:15;3.85;;;2.63;;
48925;SDS011;39838;59.938;30.642;2023-07-29T12:10:42;3.65;;;2.58;;
48925;SDS011;39838;59.938;30.642;2023-07-29T12:13:10;4.55;;;2.65;;
48925;SDS011;39838;59.938;30.642;2023-07-29T12:15:37;4.10;;;2.58;;
48925;SDS011;39838;59.938;30.642;2023-07-29T12:18:05;6.35;;;2.80;;
48925;SDS011;39838;59.938;30.642;2023-07-29T12:20:33;4.45;;;2.70;;
48925;SDS011;39838;59.938;30.642;2023-07-29T12:23:02;3.45;;;2.60;;
48925;SDS011;39838;59.938;30.642;2023-07-29T12:25:31;5.00;;;2.85;;
48925;SDS011;39838;59.938;30.642;2023-07-29T12:28:02;6.65;;;2.75;;
48925;SDS011;39838;59.938;30.642;2023-07-29T12:30:30;6.15;;;2.58;;
48925;SDS011;39838;59.938;30.642;2023-07-29T12:32:57;6.30;;;2.40;;
48925;SDS011;39838;59.938;30.642;2023-07-29T12:35:25;4.03;;;2.40;;
48925;SDS011;39838;59.938;30.642;2023-07-29T12:38:03;3.63;;;2.42;;
48925;SDS011;39838;59.938;30.642;2023-07-29T12:40:30;6.45;;;2.63;;
48925;SDS011;39838;59.938;30.642;2023-07-29T12:42:57;4.32;;;2.63;;
48925;SDS011;39838;59.938;30.642;2023-07-29T12:45:24;3.38;;;2.47;;
48925;SDS011;39838;59.938;30.642;2023-07-29T12:47:54;3.67;;;2.50;;
48925;SDS011;39838;59.938;30.642;2023-07-29T12:50:21;3.08;;;2.28;;
48925;SDS011;39838;59.938;30.642;2023-07-29T12:52:48;4.15;;;2.47;;
48925;SDS011;39838;59.938;30.642;2023-07-29T12:55:17;3.17;;;2.20;;
48925;SDS011;39838;59.938;30.642;2023-07-29T12:57:44;4.85;;;2.60;;
48925;SDS011;39838;59.938;30.642;2023-07-29T13:00:11;4.57;;;2.47;;
48925;SDS011;39838;59.938;30.642;2023-07-29T13:02:39;3.28;;;2.20;;
48925;SDS011;39838;59.938;30.642;2023-07-29T13:05:08;6.75;;;2.70;;
48925;SDS011;39838;59.938;30.642;2023-07-29T13:07:37;8.40;;;2.70;;
48925;SDS011;39838;59.938;30.642;2023-07-29T13:10:05;6.82;;;2.50;;
48925;SDS011;39838;59.938;30.642;2023-07-29T13:12:34;4.68;;;2.17;;
48925;SDS011;39838;59.938;30.642;2023-07-29T13:15:01;4.45;;;2.40;;
48925;SDS011;39838;59.938;30.642;2023-07-29T13:17:30;7.45;;;2.35;;
48925;SDS011;39838;59.938;30.642;2023-07-29T13:19:57;5.50;;;2.30;;
48925;SDS011;39838;59.938;30.642;2023-07-29T13:22:24;2.97;;;2.20;;
48925;SDS011;39838;59.938;30.642;2023-07-29T13:24:52;4.32;;;2.25;;
48925;SDS011;39838;59.938;30.642;2023-07-29T13:27:19;4.75;;;2.17;;
48925;SDS011;39838;59.938;30.642;2023-07-29T13:29:47;8.70;;;2.50;;
48925;SDS011;39838;59.938;30.642;2023-07-29T13:32:15;3.92;;;1.85;;
48925;SDS011;39838;59.938;30.642;2023-07-29T13:34:42;5.07;;;2.08;;
48925;SDS011;39838;59.938;30.642;2023-07-29T13:37:09;4.68;;;2.10;;
48925;SDS011;39838;59.938;30.642;2023-07-29T13:39:37;3.47;;;2.00;;
48925;SDS011;39838;59.938;30.642;2023-07-29T13:42:04;3.75;;;2.00;;
48925;SDS011;39838;59.938;30.642;2023-07-29T13:44:31;4.38;;;2.10;;
48925;SDS011;39838;59.938;30.642;2023-07-29T13:47:00;3.72;;;2.10;;
48925;SDS011;39838;59.938;30.642;2023-07-29T13:49:27;3.03;;;2.00;;
48925;SDS011;39838;59.938;30.642;2023-07-29T13:51:54;7.93;;;2.70;;
48925;SDS011;39838;59.938;30.642;2023-07-29T13:54:22;3.58;;;2.10;;
48925;SDS011;39838;59.938;30.642;2023-07-29T13:56:49;4.22;;;2.40;;
48925;SDS011;39838;59.938;30.642;2023-07-29T13:59:16;4.18;;;2.40;;
48925;SDS011;39838;59.938;30.642;2023-07-29T14:01:43;4.82;;;2.47;;
48925;SDS011;39838;59.938;30.642;2023-07-29T14:04:12;4.55;;;2.13;;
48925;SDS011;39838;59.938;30.642;2023-07-29T14:06:39;3.67;;;2.28;;
48925;SDS011;39838;59.938;30.642;2023-07-29T14:09:07;4.50;;;2.28;;
48925;SDS011;39838;59.938;30.642;2023-07-29T14:11:34;6.90;;;2.50;;
48925;SDS011;39838;59.938;30.642;2023-07-29T14:14:01;6.35;;;2.60;;
48925;SDS011;39838;59.938;30.642;2023-07-29T14:16:28;8.00;;;2.50;;
48925;SDS011;39838;59.938;30.642;2023-07-29T14:18:55;4.38;;;2.00;;
48925;SDS011;39838;59.938;30.642;2023-07-29T14:21:24;5.20;;;2.50;;
48925;SDS011;39838;59.938;30.642;2023-07-29T14:23:51;5.05;;;2.47;;
48925;SDS011;39838;59.938;30.642;2023-07-29T14:26:18;5.60;;;2.70;;
48925;SDS011;39838;59.938;30.642;2023-07-29T14:28:45;6.35;;;2.80;;
48925;SDS011;39838;59.938;30.642;2023-07-29T14:31:12;6.88;;;2.83;;
48925;SDS011;39838;59.938;30.642;2023-07-29T14:33:40;10.75;;;3.60;;
48925;SDS011;39838;59.938;30.642;2023-07-29T14:36:07;5.80;;;3.45;;
48925;SDS011;39838;59.938;30.642;2023-07-29T14:38:35;5.18;;;3.47;;